createdAt,value
2022-09-11T00:01:55.082Z,18.20
2022-09-11T00:04:23.467Z,18.19
2022-09-11T00:06:50.857Z,18.14
2022-09-11T00:09:17.997Z,18.13
2022-09-11T00:11:45.310Z,18.15
2022-09-11T00:14:14.320Z,18.12
2022-09-11T00:16:45.349Z,18.15
2022-09-11T00:19:15.910Z,17.96
2022-09-11T00:21:43.343Z,17.87
2022-09-11T00:24:10.765Z,17.84
2022-09-11T00:26:39.307Z,17.82
2022-09-11T00:29:06.459Z,17.86
2022-09-11T00:31:33.614Z,17.85
2022-09-11T00:34:01.017Z,17.84
2022-09-11T00:36:31.892Z,17.77
2022-09-11T00:39:00.164Z,17.74
2022-09-11T00:41:30.538Z,17.76
2022-09-11T00:44:03.399Z,17.75
2022-09-11T00:46:43.796Z,17.74
2022-09-11T00:49:22.879Z,17.69
2022-09-11T00:52:08.905Z,17.54
2022-09-11T00:54:41.982Z,17.49
2022-09-11T00:57:10.823Z,17.49
2022-09-11T00:59:42.203Z,17.51
2022-09-11T01:02:13.906Z,17.53
2022-09-11T01:04:41.254Z,17.44
2022-09-11T01:07:09.058Z,17.50
2022-09-11T01:09:36.054Z,17.48
2022-09-11T01:12:10.504Z,17.51
2022-09-11T01:14:49.824Z,17.44
2022-09-11T01:17:19.722Z,17.37
2022-09-11T01:19:55.858Z,17.31
2022-09-11T01:23:02.953Z,17.31
2022-09-11T01:25:58.974Z,17.29
2022-09-11T01:28:37.429Z,17.21
2022-09-11T01:31:12.789Z,17.25
2022-09-11T01:33:48.072Z,17.27
2022-09-11T01:36:34.755Z,17.19
2022-09-11T01:39:04.525Z,17.10
2022-09-11T01:41:40.915Z,17.10
2022-09-11T01:44:23.290Z,17.04
2022-09-11T01:46:53.614Z,17.14
2022-09-11T01:49:29.378Z,17.11
2022-09-11T01:52:03.258Z,17.09
2022-09-11T01:54:35.526Z,17.16
2022-09-11T01:57:10.063Z,17.18
2022-09-11T01:59:48.335Z,17.11
2022-09-11T02:02:22.626Z,17.21
2022-09-11T02:05:01.578Z,17.29
2022-09-11T02:07:40.052Z,17.37
2022-09-11T02:10:18.998Z,17.39
2022-09-11T02:12:53.728Z,17.36
2022-09-11T02:15:25.453Z,17.30
2022-09-11T02:18:02.781Z,17.27
2022-09-11T02:20:31.618Z,17.30
2022-09-11T02:22:59.457Z,17.27
2022-09-11T02:25:26.269Z,17.35
2022-09-11T02:27:54.978Z,17.29
2022-09-11T02:30:22.070Z,17.34
2022-09-11T02:32:49.877Z,17.40
2022-09-11T02:35:16.939Z,17.49
2022-09-11T02:38:18.248Z,17.39
2022-09-11T02:41:03.367Z,17.38
2022-09-11T02:43:51.540Z,17.43
2022-09-11T02:46:52.817Z,17.47
2022-09-11T02:49:28.531Z,17.44
2022-09-11T02:52:43.446Z,17.49
2022-09-11T02:55:49.584Z,17.52
2022-09-11T02:58:51.468Z,17.50
2022-09-11T03:01:18.710Z,17.56
2022-09-11T03:03:46.571Z,17.58
2022-09-11T03:06:32.000Z,17.54
2022-09-11T03:08:59.128Z,17.47
2022-09-11T03:11:26.192Z,17.39
2022-09-11T03:13:53.165Z,17.38
2022-09-11T03:16:20.804Z,17.40
2022-09-11T03:18:47.724Z,17.26
2022-09-11T03:21:14.858Z,17.20
2022-09-11T03:23:41.985Z,17.09
2022-09-11T03:26:09.032Z,17.13
2022-09-11T03:28:36.267Z,17.12
2022-09-11T03:31:04.704Z,17.14
2022-09-11T03:33:31.645Z,17.19
2022-09-11T03:36:00.562Z,17.11
2022-09-11T03:38:27.713Z,17.18
2022-09-11T03:40:55.342Z,17.09
2022-09-11T03:43:22.417Z,17.22
2022-09-11T03:45:50.410Z,17.14
2022-09-11T03:48:18.290Z,17.13
2022-09-11T03:50:46.532Z,17.11
2022-09-11T03:53:14.700Z,17.13
2022-09-11T03:55:41.960Z,17.18
2022-09-11T03:58:09.934Z,17.21
2022-09-11T04:00:36.955Z,17.22
2022-09-11T04:03:03.880Z,17.25
2022-09-11T04:05:31.062Z,17.26
2022-09-11T04:07:58.319Z,17.21
2022-09-11T04:10:26.220Z,17.17
2022-09-11T04:12:53.198Z,17.09
2022-09-11T04:15:20.327Z,17.15
2022-09-11T04:17:47.281Z,17.12
2022-09-11T04:20:14.169Z,17.17
2022-09-11T04:22:41.859Z,17.08
2022-09-11T04:25:09.083Z,16.98
2022-09-11T04:27:36.230Z,16.96
2022-09-11T04:30:03.147Z,17.00
2022-09-11T04:32:30.165Z,17.03
2022-09-11T04:34:57.161Z,17.04
2022-09-11T04:37:24.231Z,17.11
2022-09-11T04:39:51.202Z,17.13
2022-09-11T04:42:18.363Z,17.10
2022-09-11T04:44:46.972Z,17.11
2022-09-11T04:47:14.155Z,17.20
2022-09-11T04:49:41.113Z,17.20
2022-09-11T04:52:08.108Z,17.18
2022-09-11T04:54:35.033Z,17.16
2022-09-11T04:57:02.259Z,17.22
2022-09-11T04:59:29.359Z,17.31
2022-09-11T05:01:56.464Z,17.27
2022-09-11T05:04:26.191Z,17.30
2022-09-11T05:06:53.818Z,17.37
2022-09-11T05:09:20.760Z,17.56
2022-09-11T05:11:48.325Z,17.66
2022-09-11T05:14:15.624Z,17.66
2022-09-11T05:16:43.938Z,17.72
2022-09-11T05:19:11.152Z,17.97
2022-09-11T05:21:38.544Z,18.16
2022-09-11T05:24:05.777Z,18.33
2022-09-11T05:26:35.695Z,18.54
2022-09-11T05:29:13.819Z,18.78
2022-09-11T05:31:41.577Z,18.98
2022-09-11T05:34:09.048Z,19.23
2022-09-11T05:36:36.221Z,19.40
2022-09-11T05:39:04.255Z,19.55
2022-09-11T05:41:31.547Z,19.67
2022-09-11T05:43:59.389Z,19.83
2022-09-11T05:46:26.303Z,20.07
2022-09-11T05:48:53.832Z,20.28
2022-09-11T05:51:21.981Z,20.52
2022-09-11T05:53:53.259Z,20.60
2022-09-11T05:56:25.243Z,20.82
2022-09-11T05:58:52.810Z,20.91
2022-09-11T06:01:22.644Z,20.94
2022-09-11T06:03:50.908Z,20.89
2022-09-11T06:06:22.467Z,20.99
2022-09-11T06:08:51.977Z,20.95
2022-09-11T06:11:21.120Z,21.02
2022-09-11T06:13:49.564Z,21.13
2022-09-11T06:16:19.289Z,21.15
2022-09-11T06:18:50.627Z,21.27
2022-09-11T06:21:20.606Z,21.37
2022-09-11T06:23:52.235Z,21.56
2022-09-11T06:26:22.109Z,21.40
2022-09-11T06:28:49.372Z,21.38
2022-09-11T06:31:19.512Z,21.71
2022-09-11T06:33:47.676Z,21.98
2022-09-11T06:36:17.713Z,21.94
2022-09-11T06:38:45.668Z,21.80
2022-09-11T06:41:15.730Z,21.84
2022-09-11T06:43:43.763Z,22.08
2022-09-11T06:46:15.841Z,22.36
2022-09-11T06:48:44.667Z,22.65
2022-09-11T06:51:14.505Z,22.89
2022-09-11T06:53:42.524Z,23.08
2022-09-11T06:56:16.404Z,23.30
2022-09-11T06:58:44.149Z,23.46
2022-09-11T07:01:16.973Z,23.74
2022-09-11T07:03:48.314Z,23.98
2022-09-11T07:06:17.692Z,24.18
2022-09-11T07:08:44.828Z,24.33
2022-09-11T07:11:13.198Z,24.67
2022-09-11T07:13:42.204Z,24.73
2022-09-11T07:16:10.933Z,24.69
2022-09-11T07:18:43.802Z,24.64
2022-09-11T07:21:16.916Z,24.77
2022-09-11T07:23:48.593Z,24.81
2022-09-11T07:26:16.914Z,24.94
2022-09-11T07:28:43.945Z,24.90
2022-09-11T07:31:14.439Z,25.00
2022-09-11T07:33:46.616Z,25.11
2022-09-11T07:36:18.923Z,25.07
2022-09-11T07:38:47.719Z,25.36
2022-09-11T07:41:17.011Z,25.32
2022-09-11T07:43:47.435Z,25.24
2022-09-11T07:46:15.394Z,25.18
2022-09-11T07:48:43.265Z,24.96
2022-09-11T07:51:16.191Z,25.06
2022-09-11T07:53:46.529Z,25.20
2022-09-11T07:56:18.647Z,25.47
2022-09-11T07:58:46.072Z,25.54
2022-09-11T08:01:17.234Z,25.74
2022-09-11T08:03:45.014Z,25.74
2022-09-11T08:06:21.886Z,25.80
2022-09-11T08:08:54.637Z,25.87
2022-09-11T08:11:22.432Z,25.95
2022-09-11T08:13:52.547Z,26.03
2022-09-11T08:16:21.253Z,26.15
2022-09-11T08:18:48.667Z,26.34
2022-09-11T08:21:15.648Z,26.51
2022-09-11T08:23:44.678Z,26.60
2022-09-11T08:26:22.107Z,26.58
2022-09-11T08:28:50.822Z,26.74
2022-09-11T08:31:20.212Z,26.62
2022-09-11T08:33:49.530Z,26.62
2022-09-11T08:36:19.467Z,26.36
2022-09-11T08:38:47.391Z,26.21
2022-09-11T08:41:35.239Z,26.29
2022-09-11T08:44:05.618Z,26.57
2022-09-11T08:47:02.550Z,26.39
2022-09-11T08:49:29.493Z,26.27
2022-09-11T08:52:03.508Z,26.26
2022-09-11T08:54:33.787Z,26.43
2022-09-11T08:57:27.313Z,26.63
2022-09-11T09:00:18.518Z,26.74
2022-09-11T09:03:04.419Z,26.72
2022-09-11T09:06:00.847Z,26.90
2022-09-11T09:08:31.098Z,27.01
2022-09-11T09:11:29.676Z,27.06
2022-09-11T09:13:56.675Z,27.00
2022-09-11T09:16:42.648Z,27.26
2022-09-11T09:19:26.908Z,27.31
2022-09-11T09:22:18.591Z,27.17
2022-09-11T09:24:54.597Z,26.58
2022-09-11T09:27:35.809Z,26.33
2022-09-11T09:30:07.415Z,26.20
2022-09-11T09:32:45.997Z,25.88
2022-09-11T09:35:28.918Z,25.88
2022-09-11T09:37:55.939Z,25.70
2022-09-11T09:40:25.900Z,25.65
2022-09-11T09:43:37.735Z,25.65
2022-09-11T09:46:32.700Z,25.45
2022-09-11T09:49:01.663Z,25.48
2022-09-11T09:51:29.541Z,25.66
2022-09-11T09:54:01.886Z,25.87
2022-09-11T09:56:32.014Z,25.94
2022-09-11T09:59:15.503Z,26.22
2022-09-11T10:01:54.372Z,26.42
2022-09-11T10:04:23.947Z,26.48
2022-09-11T10:06:54.531Z,26.56
2022-09-11T10:09:28.291Z,26.87
2022-09-11T10:12:09.192Z,27.09
2022-09-11T10:14:52.190Z,26.72
2022-09-11T10:17:31.555Z,26.89
2022-09-11T10:20:33.231Z,27.24
2022-09-11T10:23:24.869Z,26.96
2022-09-11T10:25:52.782Z,26.74
2022-09-11T10:28:31.304Z,26.65
2022-09-11T10:31:02.648Z,26.66
2022-09-11T10:33:33.807Z,26.57
2022-09-11T10:36:04.687Z,26.79
2022-09-11T10:38:46.273Z,27.14
2022-09-11T10:41:13.572Z,27.57
2022-09-11T10:44:02.393Z,27.19
2022-09-11T10:46:38.502Z,26.98
2022-09-11T10:49:05.574Z,26.85
2022-09-11T10:51:36.015Z,26.79
2022-09-11T10:54:08.845Z,26.99
2022-09-11T10:56:43.275Z,27.01
2022-09-11T10:59:18.528Z,26.88
2022-09-11T11:01:45.501Z,26.88
2022-09-11T11:04:12.987Z,27.10
2022-09-11T11:07:02.539Z,27.19
2022-09-11T11:09:35.578Z,27.29
2022-09-11T11:12:29.321Z,27.33
2022-09-11T11:15:20.324Z,27.44
2022-09-11T11:18:18.851Z,27.49
2022-09-11T11:21:28.151Z,27.54
2022-09-11T11:24:13.632Z,27.22
2022-09-11T11:26:49.437Z,26.90
2022-09-11T11:29:37.128Z,27.07
2022-09-11T11:32:11.285Z,27.38
2022-09-11T11:34:51.813Z,27.50
2022-09-11T11:37:32.388Z,27.62
2022-09-11T11:40:10.862Z,27.86
2022-09-11T11:42:55.960Z,27.95
2022-09-11T11:45:32.794Z,27.88
2022-09-11T11:48:06.093Z,27.71
2022-09-11T11:50:43.169Z,27.65
2022-09-11T11:53:19.351Z,27.49
2022-09-11T11:55:55.059Z,27.19
2022-09-11T11:58:47.614Z,27.17
2022-09-11T12:01:24.956Z,27.26
2022-09-11T12:04:03.156Z,27.31
2022-09-11T12:06:30.366Z,27.35
2022-09-11T12:08:57.951Z,27.34
2022-09-11T12:11:32.151Z,27.39
2022-09-11T12:14:00.103Z,27.52
2022-09-11T12:16:32.727Z,27.44
2022-09-11T12:19:15.504Z,27.29
2022-09-11T12:21:53.548Z,27.36
2022-09-11T12:24:45.091Z,27.55
2022-09-11T12:27:48.957Z,27.56
2022-09-11T12:30:18.275Z,27.52
2022-09-11T12:33:00.480Z,27.57
2022-09-11T12:35:47.777Z,27.60
2022-09-11T12:38:31.203Z,27.73
2022-09-11T12:41:10.461Z,27.82
2022-09-11T12:43:37.563Z,27.87
2022-09-11T12:46:09.253Z,27.86
2022-09-11T12:48:43.358Z,27.91
2022-09-11T12:51:31.726Z,27.84
2022-09-11T12:54:04.988Z,27.91
2022-09-11T12:56:36.612Z,27.90
2022-09-11T12:59:09.501Z,27.86
2022-09-11T13:01:42.678Z,27.77
2022-09-11T13:04:09.767Z,27.61
2022-09-11T13:06:41.755Z,27.48
2022-09-11T13:09:28.272Z,27.36
2022-09-11T13:12:16.921Z,27.44
2022-09-11T13:14:52.178Z,27.50
2022-09-11T13:17:30.917Z,27.33
2022-09-11T13:20:20.752Z,27.26
2022-09-11T13:22:49.029Z,27.24
2022-09-11T13:25:19.399Z,27.21
2022-09-11T13:28:00.142Z,27.20
2022-09-11T13:30:27.889Z,27.33
2022-09-11T13:33:09.567Z,27.34
2022-09-11T13:35:40.345Z,27.39
2022-09-11T13:38:18.634Z,27.47
2022-09-11T13:40:50.073Z,27.49
2022-09-11T13:43:39.869Z,27.54
2022-09-11T13:46:16.286Z,27.57
2022-09-11T13:48:45.030Z,27.56
2022-09-11T13:51:21.191Z,27.55
2022-09-11T13:54:12.191Z,27.36
2022-09-11T13:56:47.581Z,27.29
2022-09-11T13:59:36.726Z,27.19
2022-09-11T14:02:08.643Z,27.10
2022-09-11T14:04:41.473Z,27.13
2022-09-11T14:07:20.512Z,27.24
2022-09-11T14:10:19.742Z,27.24
2022-09-11T14:13:17.108Z,27.01
2022-09-11T14:15:58.480Z,26.82
2022-09-11T14:18:52.937Z,26.77
2022-09-11T14:21:36.083Z,26.69
2022-09-11T14:24:07.359Z,26.78
2022-09-11T14:26:35.318Z,26.84
2022-09-11T14:29:25.340Z,26.88
2022-09-11T14:31:54.208Z,26.93
2022-09-11T14:34:31.535Z,26.87
2022-09-11T14:37:04.498Z,26.81
2022-09-11T14:39:31.453Z,26.63
2022-09-11T14:41:59.321Z,26.59
2022-09-11T14:44:27.291Z,26.53
2022-09-11T14:46:55.545Z,26.42
2022-09-11T14:49:23.149Z,26.35
2022-09-11T14:51:55.336Z,26.31
2022-09-11T14:54:23.041Z,26.25
2022-09-11T14:56:50.013Z,26.08
2022-09-11T14:59:19.643Z,26.04
2022-09-11T15:01:47.422Z,25.92
2022-09-11T15:04:23.377Z,25.91
2022-09-11T15:06:53.395Z,25.73
2022-09-11T15:09:20.456Z,25.67
2022-09-11T15:11:47.632Z,25.60
2022-09-11T15:14:27.855Z,25.66
2022-09-11T15:17:04.568Z,25.57
2022-09-11T15:19:32.582Z,25.52
2022-09-11T15:21:59.707Z,25.60
2022-09-11T15:24:29.096Z,25.54
2022-09-11T15:26:56.747Z,25.35
2022-09-11T15:29:29.405Z,25.24
2022-09-11T15:31:58.918Z,25.22
2022-09-11T15:34:26.611Z,25.25
2022-09-11T15:36:53.501Z,25.47
2022-09-11T15:39:21.658Z,25.73
2022-09-11T15:41:48.826Z,25.77
2022-09-11T15:44:20.708Z,25.51
2022-09-11T15:46:49.934Z,25.03
2022-09-11T15:49:18.295Z,24.73
2022-09-11T15:51:45.322Z,24.37
2022-09-11T15:54:13.887Z,24.28
2022-09-11T15:56:40.841Z,24.06
2022-09-11T15:59:08.459Z,23.91
2022-09-11T16:01:37.677Z,23.75
2022-09-11T16:04:08.846Z,23.61
2022-09-11T16:06:39.202Z,23.47
2022-09-11T16:09:08.844Z,23.30
2022-09-11T16:11:41.155Z,23.15
2022-09-11T16:14:09.014Z,22.94
2022-09-11T16:16:35.951Z,22.80
2022-09-11T16:19:03.817Z,22.66
2022-09-11T16:21:31.308Z,22.55
2022-09-11T16:24:01.748Z,22.45
2022-09-11T16:26:31.673Z,22.28
2022-09-11T16:28:58.767Z,22.10
2022-09-11T16:31:26.300Z,22.00
2022-09-11T16:33:57.101Z,21.91
2022-09-11T16:36:34.362Z,21.69
2022-09-11T16:39:01.857Z,21.58
2022-09-11T16:41:29.156Z,21.48
2022-09-11T16:43:56.082Z,21.30
2022-09-11T16:46:25.948Z,21.25
2022-09-11T16:48:54.559Z,21.16
2022-09-11T16:51:24.378Z,21.08
2022-09-11T16:53:51.581Z,20.89
2022-09-11T16:56:21.408Z,20.83
2022-09-11T16:58:49.403Z,20.73
2022-09-11T17:01:19.066Z,20.56
2022-09-11T17:03:48.533Z,20.41
2022-09-11T17:06:17.101Z,20.34
2022-09-11T17:08:44.910Z,20.26
2022-09-11T17:11:14.973Z,20.18
2022-09-11T17:13:43.491Z,20.06
2022-09-11T17:16:22.403Z,19.96
2022-09-11T17:18:54.334Z,19.81
2022-09-11T17:21:26.308Z,19.73
2022-09-11T17:23:56.437Z,19.67
2022-09-11T17:26:24.905Z,19.62
2022-09-11T17:28:52.786Z,19.54
2022-09-11T17:31:20.245Z,19.47
2022-09-11T17:33:52.018Z,19.38
2022-09-11T17:36:22.357Z,19.36
2022-09-11T17:38:52.825Z,19.11
2022-09-11T17:41:21.170Z,19.11
2022-09-11T17:43:48.884Z,18.99
2022-09-11T17:46:20.046Z,18.91
2022-09-11T17:48:47.441Z,18.80
2022-09-11T17:51:18.534Z,18.67
2022-09-11T17:53:48.818Z,18.64
2022-09-11T17:56:18.517Z,18.62
2022-09-11T17:58:46.001Z,18.68
2022-09-11T18:01:16.812Z,18.68
2022-09-11T18:03:44.810Z,18.61
2022-09-11T18:06:21.457Z,18.60
2022-09-11T18:08:48.510Z,18.46
2022-09-11T18:11:15.529Z,18.49
2022-09-11T18:13:46.016Z,18.55
2022-09-11T18:16:13.233Z,18.48
2022-09-11T18:18:40.401Z,18.42
2022-09-11T18:21:09.822Z,18.45
2022-09-11T18:23:39.777Z,18.37
2022-09-11T18:26:07.418Z,18.26
2022-09-11T18:28:34.978Z,18.37
2022-09-11T18:31:06.517Z,18.34
2022-09-11T18:33:34.101Z,18.44
2022-09-11T18:36:07.489Z,18.33
2022-09-11T18:38:35.748Z,18.28
2022-09-11T18:41:02.899Z,18.25
2022-09-11T18:43:30.394Z,18.30
2022-09-11T18:46:02.202Z,18.44
2022-09-11T18:48:29.232Z,18.48
2022-09-11T18:50:56.364Z,18.44
2022-09-11T18:53:23.993Z,18.41
2022-09-11T18:56:10.699Z,18.46
2022-09-11T18:58:40.188Z,18.43
2022-09-11T19:01:09.292Z,18.44
2022-09-11T19:03:40.775Z,18.48
2022-09-11T19:06:14.476Z,18.52
2022-09-11T19:08:47.382Z,18.61
2022-09-11T19:11:22.207Z,18.55
2022-09-11T19:13:51.177Z,18.45
2022-09-11T19:16:19.941Z,18.47
2022-09-11T19:18:47.791Z,18.41
2022-09-11T19:21:21.305Z,18.29
2022-09-11T19:24:00.345Z,18.30
2022-09-11T19:26:38.313Z,18.28
2022-09-11T19:29:05.946Z,18.29
2022-09-11T19:31:34.015Z,18.22
2022-09-11T19:34:03.042Z,18.26
2022-09-11T19:36:32.103Z,18.27
2022-09-11T19:39:00.441Z,18.28
2022-09-11T19:41:33.859Z,18.29
2022-09-11T19:44:06.527Z,18.30
2022-09-11T19:46:34.771Z,18.30
2022-09-11T19:49:03.591Z,18.26
2022-09-11T19:51:33.574Z,18.20
2022-09-11T19:54:02.994Z,18.21
2022-09-11T19:56:31.871Z,18.26
2022-09-11T19:59:00.333Z,18.17
2022-09-11T20:01:40.790Z,18.24
2022-09-11T20:04:08.090Z,18.22
2022-09-11T20:06:35.743Z,18.24
2022-09-11T20:11:52.435Z,18.26
2022-09-11T20:14:21.552Z,18.23
2022-09-11T20:16:48.991Z,18.15
2022-09-11T20:19:17.534Z,18.16
2022-09-11T20:21:44.660Z,18.05
2022-09-11T20:24:11.992Z,18.06
2022-09-11T20:26:38.971Z,18.10
2022-09-11T20:29:09.359Z,18.10
2022-09-11T20:31:47.915Z,18.07
2022-09-11T20:34:19.931Z,18.10
2022-09-11T20:36:48.110Z,18.13
2022-09-11T20:39:16.001Z,18.08
2022-09-11T20:41:43.498Z,18.04
2022-09-11T20:44:10.487Z,18.07
2022-09-11T20:46:37.538Z,18.06
2022-09-11T20:49:05.271Z,18.04
2022-09-11T20:51:33.102Z,18.07
2022-09-11T20:54:00.523Z,18.07
2022-09-11T20:56:27.964Z,18.05
2022-09-11T20:58:56.166Z,18.08
2022-09-11T21:01:24.529Z,18.07
2022-09-11T21:03:56.935Z,18.00
2022-09-11T21:06:26.705Z,18.02
2022-09-11T21:09:00.770Z,18.05
2022-09-11T21:11:30.177Z,17.94
2022-09-11T21:13:57.569Z,17.92
2022-09-11T21:16:24.934Z,17.89
2022-09-11T21:18:54.328Z,17.86
2022-09-11T21:21:22.733Z,17.84
2022-09-11T21:23:54.675Z,17.79
2022-09-11T21:26:22.706Z,17.86
2022-09-11T21:28:49.866Z,17.80
2022-09-11T21:31:16.960Z,17.76
2022-09-11T21:33:44.341Z,17.76
2022-09-11T21:36:11.384Z,17.73
2022-09-11T21:38:38.537Z,17.65
2022-09-11T21:41:07.542Z,17.66
2022-09-11T21:43:34.654Z,17.65
2022-09-11T21:46:01.903Z,17.62
2022-09-11T21:48:33.618Z,17.64
2022-09-11T21:51:10.505Z,17.52
2022-09-11T21:53:38.985Z,17.49
2022-09-11T21:56:07.871Z,17.46
2022-09-11T21:58:34.993Z,17.47
2022-09-11T22:01:06.639Z,17.30
2022-09-11T22:03:34.048Z,17.30
2022-09-11T22:06:06.123Z,17.33
2022-09-11T22:08:33.275Z,17.30
2022-09-11T22:11:05.465Z,17.30
2022-09-11T22:13:35.608Z,17.29
2022-09-11T22:16:09.816Z,17.31
2022-09-11T22:18:38.189Z,17.30
2022-09-11T22:21:05.600Z,17.36
2022-09-11T22:23:33.124Z,17.35
2022-09-11T22:26:10.567Z,17.33
2022-09-11T22:28:38.685Z,17.25
2022-09-11T22:31:11.246Z,17.24
2022-09-11T22:33:40.248Z,17.22
2022-09-11T22:36:33.911Z,17.24
2022-09-11T22:39:01.079Z,17.26
2022-09-11T22:41:28.277Z,17.19
2022-09-11T22:43:55.615Z,17.18
2022-09-11T22:46:23.974Z,17.16
2022-09-11T22:48:51.405Z,17.16
2022-09-11T22:51:18.665Z,17.06
2022-09-11T22:53:46.176Z,17.06
2022-09-11T22:56:14.178Z,17.17
2022-09-11T22:58:41.406Z,17.09
2022-09-11T23:01:11.453Z,17.11
2022-09-11T23:03:39.079Z,17.09
2022-09-11T23:06:24.854Z,17.05
2022-09-11T23:08:52.804Z,16.91
2022-09-11T23:11:20.194Z,16.92
2022-09-11T23:13:48.859Z,16.91
2022-09-11T23:16:19.771Z,16.86
2022-09-11T23:18:47.735Z,16.94
2022-09-11T23:21:15.508Z,16.96
2022-09-11T23:23:43.182Z,16.86
2022-09-11T23:26:12.690Z,16.88
2022-09-11T23:28:40.568Z,16.82
2022-09-11T23:31:16.473Z,16.81
2022-09-11T23:33:43.602Z,16.81
2022-09-11T23:36:13.082Z,16.77
2022-09-11T23:38:40.732Z,16.70
2022-09-11T23:41:08.066Z,16.77
2022-09-11T23:43:35.514Z,16.75
2022-09-11T23:46:02.915Z,16.80
2022-09-11T23:48:30.295Z,16.80
2022-09-11T23:50:57.374Z,16.82
2022-09-11T23:53:24.257Z,16.76
2022-09-11T23:55:52.799Z,16.78
2022-09-11T23:58:19.814Z,16.77
